Time;durP1;ratioP1;P1;durP2;ratioP2;P2;SDS_P1;SDS_P2;PMS_P1;PMS_P2;Temp;Humidity;BMP_temperature;BMP_pressure;BME280_temperature;BME280_humidity;BME280_pressure;Samples;Min_cycle;Max_cycle;Signal;HPM_P1;HPM_P2
2022/08/15 00:00:09;;;;;;;9.18;5.28;;;26.40;47.60;;;;;;929194;152;27356;-75
2022/08/15 00:02:35;;;;;;;5.28;4.58;;;26.40;47.60;;;;;;930228;154;27329;-75
2022/08/15 00:05:02;;;;;;;5.47;4.92;;;26.40;47.60;;;;;;927940;151;27474;-75
2022/08/15 00:07:28;;;;;;;7.97;6.03;;;26.30;47.40;;;;;;926846;154;27438;-75
2022/08/15 00:09:55;;;;;;;8.15;6.20;;;26.30;47.40;;;;;;929186;151;27358;-75
2022/08/15 00:12:22;;;;;;;9.13;7.28;;;26.30;47.40;;;;;;940413;151;27325;-75
2022/08/15 00:14:49;;;;;;;8.43;7.53;;;26.30;47.40;;;;;;948816;149;27390;-75
2022/08/15 00:17:15;;;;;;;12.23;8.53;;;26.20;47.40;;;;;;950307;149;27326;-75
2022/08/15 00:19:44;;;;;;;10.78;7.78;;;26.20;47.40;;;;;;950969;150;27361;-75
2022/08/15 00:22:09;;;;;;;12.35;8.85;;;26.10;47.40;;;;;;950849;149;27339;-75
2022/08/15 00:24:35;;;;;;;13.30;9.43;;;26.10;47.20;;;;;;943800;149;27816;-75
2022/08/15 00:27:01;;;;;;;9.33;7.92;;;26.10;47.20;;;;;;955991;149;27324;-75
2022/08/15 00:29:28;;;;;;;10.53;7.35;;;26.00;47.10;;;;;;954204;149;27438;-75
2022/08/15 00:31:55;;;;;;;8.80;6.10;;;26.00;47.20;;;;;;949356;149;27418;-75
2022/08/15 00:34:21;;;;;;;7.45;5.25;;;26.00;47.30;;;;;;947036;149;27279;-75
2022/08/15 00:36:49;;;;;;;5.28;4.78;;;26.00;47.30;;;;;;944854;149;27431;-75
2022/08/15 00:39:15;;;;;;;4.25;3.95;;;25.90;47.40;;;;;;944017;149;27438;-75
2022/08/15 00:41:41;;;;;;;4.30;3.90;;;25.90;47.50;;;;;;953609;149;27400;-75
2022/08/15 00:44:10;;;;;;;3.85;3.40;;;25.90;47.60;;;;;;950762;149;27335;-75
2022/08/15 00:46:37;;;;;;;3.55;3.25;;;25.80;47.60;;;;;;947317;150;27299;-75
2022/08/15 00:49:03;;;;;;;3.77;2.87;;;25.80;47.70;;;;;;946883;150;27278;-75
2022/08/15 00:51:42;;;;;;;3.40;2.77;;;25.80;47.90;;;;;;947011;150;27316;-75
2022/08/15 00:54:17;;;;;;;2.77;2.58;;;25.70;47.90;;;;;;947116;150;27439;-75
2022/08/15 00:56:49;;;;;;;2.98;2.77;;;25.70;48.00;;;;;;946485;150;27415;-75
2022/08/15 00:59:16;;;;;;;3.10;2.90;;;25.60;48.10;;;;;;946997;151;27305;-75
2022/08/15 01:01:43;;;;;;;3.12;2.92;;;25.60;48.30;;;;;;947307;150;27443;-75
2022/08/15 01:04:09;;;;;;;3.37;3.12;;;25.60;48.50;;;;;;947029;150;27379;-75
2022/08/15 01:06:37;;;;;;;3.08;2.77;;;25.50;48.80;;;;;;947767;151;27336;-75
2022/08/15 01:09:03;;;;;;;2.83;2.62;;;25.50;48.70;;;;;;947091;150;27332;-75
2022/08/15 01:11:30;;;;;;;3.05;2.85;;;25.50;48.70;;;;;;947336;151;27389;-75
2022/08/15 01:13:56;;;;;;;2.65;2.45;;;25.50;48.80;;;;;;946976;151;27310;-75
2022/08/15 01:16:22;;;;;;;3.67;2.58;;;25.40;48.80;;;;;;928180;148;27429;-75
2022/08/15 01:18:49;;;;;;;2.98;2.70;;;25.40;48.80;;;;;;928352;154;27456;-75
2022/08/15 01:21:20;;;;;;;2.98;2.77;;;25.40;48.90;;;;;;926839;153;27316;-75
2022/08/15 01:23:50;;;;;;;2.62;2.42;;;25.40;49.00;;;;;;926715;154;27398;-75
2022/08/15 01:26:17;;;;;;;2.65;2.45;;;25.30;49.00;;;;;;925426;154;27417;-75
2022/08/15 01:28:44;;;;;;;2.75;2.55;;;25.30;49.20;;;;;;927614;151;27421;-75
2022/08/15 01:31:10;;;;;;;2.60;2.40;;;25.30;49.20;;;;;;926252;151;27355;-75
2022/08/15 01:33:37;;;;;;;2.55;2.40;;;25.20;49.30;;;;;;926678;151;27312;-75
2022/08/15 01:36:03;;;;;;;2.75;2.55;;;25.20;49.20;;;;;;926468;151;27323;-75
2022/08/15 01:38:30;;;;;;;2.75;2.55;;;25.20;49.30;;;;;;927257;151;27435;-75
2022/08/15 01:41:12;;;;;;;2.80;2.60;;;25.10;49.30;;;;;;927064;151;27320;-75
2022/08/15 01:43:38;;;;;;;3.08;2.77;;;25.10;49.30;;;;;;926071;151;27486;-75
2022/08/15 01:46:05;;;;;;;4.28;2.60;;;25.10;49.40;;;;;;926715;151;27359;-75
2022/08/15 01:48:31;;;;;;;2.75;2.37;;;25.10;49.50;;;;;;927200;151;27324;-75
2022/08/15 01:50:58;;;;;;;3.80;2.37;;;25.10;49.60;;;;;;926025;151;27316;-75
2022/08/15 01:53:44;;;;;;;2.62;2.42;;;25.00;49.70;;;;;;928322;151;27292;-75
2022/08/15 01:56:28;;;;;;;2.67;2.47;;;25.00;49.80;;;;;;925853;151;27336;-75
2022/08/15 01:58:55;;;;;;;3.67;2.17;;;25.00;49.80;;;;;;926866;151;27367;-75
2022/08/15 02:01:21;;;;;;;2.37;2.17;;;24.90;49.80;;;;;;927683;152;27405;-75
2022/08/15 02:03:48;;;;;;;3.87;3.00;;;24.90;49.90;;;;;;924300;151;27447;-75
2022/08/15 02:06:17;;;;;;;3.77;2.37;;;24.90;50.00;;;;;;927143;151;27344;-75
2022/08/15 02:08:44;;;;;;;3.37;2.40;;;24.80;50.10;;;;;;927486;151;27399;-75
2022/08/15 02:11:13;;;;;;;3.17;2.80;;;24.80;50.20;;;;;;927799;151;27405;-75
2022/08/15 02:13:40;;;;;;;2.37;2.17;;;24.80;50.20;;;;;;927062;151;27389;-75
2022/08/15 02:16:06;;;;;;;4.10;2.50;;;24.80;50.30;;;;;;939112;150;27368;-75
2022/08/15 02:18:33;;;;;;;2.85;2.33;;;24.80;50.30;;;;;;945386;151;27310;-75
2022/08/15 02:20:59;;;;;;;2.45;2.25;;;24.70;50.30;;;;;;947290;150;27317;-75
2022/08/15 02:23:26;;;;;;;2.37;2.27;;;24.70;50.40;;;;;;946655;150;27338;-75
2022/08/15 02:25:52;;;;;;;2.70;2.50;;;24.70;50.50;;;;;;947315;148;27347;-75
2022/08/15 02:28:19;;;;;;;3.15;2.30;;;24.70;50.50;;;;;;947246;151;27472;-75
2022/08/15 02:30:46;;;;;;;3.98;2.12;;;24.70;50.60;;;;;;947085;151;27396;-75
2022/08/15 02:33:12;;;;;;;2.95;2.10;;;24.70;50.60;;;;;;946462;148;27305;-75
2022/08/15 02:35:39;;;;;;;6.22;2.10;;;24.60;50.60;;;;;;947813;151;27315;-75
2022/08/15 02:38:06;;;;;;;1.95;1.85;;;24.60;50.70;;;;;;946528;150;27440;-75
2022/08/15 02:40:33;;;;;;;3.40;2.22;;;24.60;50.70;;;;;;947725;150;27419;-73
2022/08/15 02:43:02;;;;;;;3.33;2.20;;;24.60;50.80;;;;;;946867;151;27325;-73
2022/08/15 02:45:37;;;;;;;2.80;2.60;;;24.70;50.80;;;;;;947243;150;27390;-74
2022/08/15 02:47:55;;;;;;;2.77;2.45;;;24.60;50.80;;;;;;945253;150;27458;-75
2022/08/15 02:50:22;;;;;;;2.37;2.00;;;24.60;50.90;;;;;;947295;150;27749;-74
2022/08/15 02:52:49;;;;;;;13.20;2.80;;;24.60;50.90;;;;;;946312;151;27302;-73
2022/08/15 02:55:15;;;;;;;3.17;2.27;;;24.60;51.00;;;;;;946734;150;27249;-75
2022/08/15 02:57:41;;;;;;;4.00;2.17;;;24.60;51.00;;;;;;947664;150;27316;-75
2022/08/15 03:00:08;;;;;;;2.50;2.30;;;24.60;51.10;;;;;;947617;151;27345;-75
2022/08/15 03:02:34;;;;;;;2.20;2.08;;;24.60;51.20;;;;;;946809;150;27354;-75
2022/08/15 03:05:02;;;;;;;2.37;2.20;;;24.60;51.20;;;;;;946417;150;27978;-75
2022/08/15 03:07:27;;;;;;;1.98;1.85;;;24.60;51.30;;;;;;946971;148;27397;-75
2022/08/15 03:09:54;;;;;;;2.52;2.33;;;24.60;51.40;;;;;;946971;151;27383;-75
2022/08/15 03:12:23;;;;;;;3.10;2.70;;;24.60;51.40;;;;;;947677;151;27326;-75
2022/08/15 03:14:47;;;;;;;4.33;2.33;;;24.60;51.60;;;;;;947819;150;27409;-75
2022/08/15 03:17:14;;;;;;;4.05;2.30;;;24.50;51.60;;;;;;947810;148;27467;-75
2022/08/15 03:19:40;;;;;;;3.42;2.40;;;24.50;51.70;;;;;;947721;151;27319;-75
2022/08/15 03:22:07;;;;;;;4.00;2.60;;;24.50;51.80;;;;;;946753;151;27265;-75
2022/08/15 03:24:34;;;;;;;2.47;2.27;;;24.50;51.90;;;;;;946875;151;27316;-75
2022/08/15 03:27:00;;;;;;;2.52;2.33;;;24.50;52.00;;;;;;947137;150;27410;-75
2022/08/15 03:29:27;;;;;;;2.52;2.33;;;24.50;52.10;;;;;;947358;150;27355;-75
2022/08/15 03:31:53;;;;;;;2.67;2.45;;;24.50;52.30;;;;;;948021;148;27323;-75
2022/08/15 03:34:21;;;;;;;2.70;2.50;;;24.50;52.40;;;;;;947542;151;27326;-75
2022/08/15 03:36:47;;;;;;;3.08;2.00;;;24.40;52.50;;;;;;947525;150;27292;-75
2022/08/15 03:39:13;;;;;;;4.28;2.52;;;24.40;52.60;;;;;;947402;150;27334;-75
2022/08/15 03:41:40;;;;;;;3.62;2.50;;;24.40;52.90;;;;;;948100;148;27471;-75
2022/08/15 03:44:06;;;;;;;4.28;2.30;;;24.40;53.00;;;;;;947128;148;27358;-75
2022/08/15 03:46:33;;;;;;;3.52;2.45;;;24.40;53.10;;;;;;947588;150;27281;-75
2022/08/15 03:48:59;;;;;;;2.40;2.02;;;24.40;53.30;;;;;;946643;151;27391;-75
2022/08/15 03:51:26;;;;;;;2.83;2.30;;;24.40;53.30;;;;;;947036;150;27757;-75
2022/08/15 03:53:53;;;;;;;2.55;2.05;;;24.50;53.50;;;;;;946542;150;27312;-75
2022/08/15 03:56:19;;;;;;;3.62;2.47;;;24.50;53.60;;;;;;947125;151;27893;-75
2022/08/15 03:58:46;;;;;;;2.27;2.12;;;24.50;53.80;;;;;;946027;151;27340;-75
2022/08/15 04:01:13;;;;;;;2.60;2.40;;;24.50;53.80;;;;;;945682;151;27330;-75
2022/08/15 04:03:39;;;;;;;2.47;2.02;;;24.50;53.90;;;;;;946788;150;27396;-75
2022/08/15 04:06:10;;;;;;;3.20;2.30;;;24.50;54.00;;;;;;946547;150;27367;-75
2022/08/15 04:08:32;;;;;;;4.55;2.75;;;24.50;54.00;;;;;;946054;150;27420;-75
2022/08/15 04:11:01;;;;;;;4.17;2.10;;;24.50;54.10;;;;;;946636;150;27347;-75
2022/08/15 04:13:28;;;;;;;3.47;2.20;;;24.50;54.20;;;;;;946901;151;27340;-75
2022/08/15 04:15:54;;;;;;;3.50;2.30;;;24.50;54.30;;;;;;947148;150;27314;-75
2022/08/15 04:18:22;;;;;;;3.22;2.52;;;24.50;54.40;;;;;;951751;150;27490;-75
2022/08/15 04:20:48;;;;;;;2.80;2.17;;;24.50;54.60;;;;;;952483;148;27354;-75
2022/08/15 04:23:14;;;;;;;2.33;1.90;;;24.50;54.50;;;;;;952764;148;27403;-75
2022/08/15 04:25:41;;;;;;;2.95;2.25;;;24.50;54.50;;;;;;952605;148;27311;-75
2022/08/15 04:28:07;;;;;;;2.72;2.17;;;24.60;54.60;;;;;;951934;149;27395;-75
2022/08/15 04:30:34;;;;;;;2.87;2.37;;;24.60;55.10;;;;;;952220;147;27414;-75
2022/08/15 04:33:12;;;;;;;3.33;2.40;;;24.60;54.60;;;;;;951975;149;27842;-75
2022/08/15 04:35:40;;;;;;;3.55;2.17;;;24.60;54.60;;;;;;952236;150;27812;-75
2022/08/15 04:38:05;;;;;;;2.35;2.12;;;24.60;54.60;;;;;;951068;150;27330;-75
2022/08/15 04:40:32;;;;;;;2.20;2.00;;;24.70;54.70;;;;;;952485;148;27350;-75
2022/08/15 04:42:59;;;;;;;2.37;1.92;;;24.70;54.70;;;;;;952794;148;27472;-75
2022/08/15 04:45:30;;;;;;;2.15;1.90;;;24.70;54.80;;;;;;951446;148;27375;-75
2022/08/15 04:47:55;;;;;;;2.27;2.08;;;24.70;54.80;;;;;;951742;150;28491;-75
2022/08/15 04:50:21;;;;;;;3.95;2.25;;;24.70;54.80;;;;;;951351;150;27241;-75
2022/08/15 04:52:48;;;;;;;3.55;2.35;;;24.80;54.90;;;;;;952206;150;27322;-75
2022/08/15 04:55:15;;;;;;;2.40;2.20;;;24.80;54.90;;;;;;950857;149;27451;-76
2022/08/15 04:57:41;;;;;;;3.37;2.10;;;24.80;54.90;;;;;;951832;148;27345;-76
2022/08/15 05:00:09;;;;;;;2.08;1.98;;;24.80;54.90;;;;;;952066;150;27335;-75
2022/08/15 05:02:35;;;;;;;2.08;1.77;;;24.90;54.90;;;;;;951232;150;27322;-75
2022/08/15 05:05:01;;;;;;;2.15;1.90;;;24.90;54.90;;;;;;951995;150;27392;-75
2022/08/15 05:07:28;;;;;;;2.02;1.90;;;24.90;54.90;;;;;;952128;148;27250;-75
2022/08/15 05:09:57;;;;;;;3.70;1.87;;;24.90;54.90;;;;;;952421;148;27319;-75
2022/08/15 05:12:24;;;;;;;2.62;1.72;;;25.00;55.40;;;;;;952161;149;27896;-75
2022/08/15 05:14:50;;;;;;;2.50;2.02;;;25.00;54.80;;;;;;952575;148;27430;-75
2022/08/15 05:17:17;;;;;;;2.33;2.12;;;25.00;54.80;;;;;;951147;148;27469;-75
2022/08/15 05:19:43;;;;;;;3.10;2.37;;;25.10;54.80;;;;;;951651;148;27451;-75
2022/08/15 05:22:10;;;;;;;3.15;2.22;;;25.10;54.80;;;;;;952129;147;27437;-75
2022/08/15 05:24:37;;;;;;;2.72;1.98;;;25.10;54.80;;;;;;952890;148;27450;-75
2022/08/15 05:27:05;;;;;;;2.37;2.02;;;25.10;54.80;;;;;;951938;148;28826;-75
2022/08/15 05:29:30;;;;;;;2.58;1.92;;;25.20;54.80;;;;;;952385;147;27423;-75
2022/08/15 05:31:58;;;;;;;4.85;2.08;;;25.20;54.80;;;;;;952365;149;27314;-75
2022/08/15 05:34:23;;;;;;;1.98;1.87;;;25.30;54.80;;;;;;952308;150;27426;-75
2022/08/15 05:36:50;;;;;;;2.35;2.15;;;25.30;54.80;;;;;;951376;148;27342;-75
2022/08/15 05:39:21;;;;;;;2.72;1.70;;;25.30;54.80;;;;;;952005;150;27331;-75
2022/08/15 05:42:11;;;;;;;1.95;1.85;;;25.40;54.80;;;;;;951470;150;27366;-75
2022/08/15 05:44:40;;;;;;;2.55;2.22;;;25.40;54.70;;;;;;952848;148;27400;-75
2022/08/15 05:47:09;;;;;;;3.70;1.87;;;25.40;54.70;;;;;;951619;149;27296;-75
2022/08/15 05:49:50;;;;;;;1.77;1.67;;;25.40;54.70;;;;;;951273;149;27349;-75
2022/08/15 05:52:28;;;;;;;2.40;1.92;;;25.40;54.70;;;;;;950092;150;27319;-75
2022/08/15 05:55:03;;;;;;;1.80;1.70;;;25.40;54.70;;;;;;950845;148;27321;-75
2022/08/15 05:57:39;;;;;;;3.37;2.25;;;25.40;54.70;;;;;;951008;150;27327;-75
2022/08/15 06:00:05;;;;;;;4.50;2.40;;;25.40;54.80;;;;;;951185;149;27257;-75
2022/08/15 06:02:41;;;;;;;3.37;2.33;;;25.40;54.80;;;;;;950669;147;27307;-75
2022/08/15 06:05:11;;;;;;;2.92;1.85;;;25.30;54.90;;;;;;950514;149;27326;-75
2022/08/15 06:07:34;;;;;;;3.22;2.40;;;25.30;55.00;;;;;;950450;150;27303;-75
2022/08/15 06:10:01;;;;;;;3.22;2.25;;;25.30;55.10;;;;;;951867;148;27426;-75
2022/08/15 06:12:31;;;;;;;2.52;2.25;;;25.30;55.30;;;;;;950987;149;27477;-75
2022/08/15 06:14:57;;;;;;;3.47;3.10;;;25.30;55.60;;;;;;950643;149;27351;-75
2022/08/15 06:17:32;;;;;;;5.12;3.15;;;25.30;55.90;;;;;;951386;149;27813;-75
2022/08/15 06:19:59;;;;;;;5.53;2.77;;;25.20;56.10;;;;;;927307;151;27319;-75
2022/08/15 06:22:28;;;;;;;5.17;3.20;;;25.20;56.20;;;;;;927988;150;27347;-76
2022/08/15 06:25:03;;;;;;;5.60;2.98;;;25.20;56.50;;;;;;925659;151;27394;-75
2022/08/15 06:27:30;;;;;;;4.78;3.50;;;25.20;56.70;;;;;;925716;151;27324;-75
2022/08/15 06:29:59;;;;;;;11.70;4.15;;;25.10;56.80;;;;;;924086;152;27348;-74
2022/08/15 06:32:28;;;;;;;7.03;3.80;;;25.10;56.80;;;;;;924427;152;27473;-74
2022/08/15 06:35:04;;;;;;;3.62;3.08;;;25.10;57.00;;;;;;915937;152;27422;-74
2022/08/15 06:37:49;;;;;;;5.72;3.40;;;25.10;57.10;;;;;;931276;151;27250;-74
2022/08/15 06:40:15;;;;;;;5.60;3.12;;;25.10;57.20;;;;;;930228;151;27454;-75
2022/08/15 06:42:42;;;;;;;5.33;3.35;;;25.10;57.20;;;;;;930526;151;27479;-74
2022/08/15 06:45:21;;;;;;;6.85;3.75;;;25.10;57.30;;;;;;931507;151;27424;-75
2022/08/15 06:47:47;;;;;;;6.22;3.47;;;25.10;57.50;;;;;;915203;152;27689;-74
2022/08/15 06:50:13;;;;;;;4.70;3.42;;;25.10;57.40;;;;;;931662;150;27464;-75
2022/08/15 06:52:40;;;;;;;4.65;3.37;;;25.10;57.50;;;;;;922886;152;27388;-75
2022/08/15 06:55:07;;;;;;;3.65;3.08;;;25.10;57.50;;;;;;930261;151;27472;-75
2022/08/15 06:57:43;;;;;;;3.98;3.27;;;25.20;57.60;;;;;;931476;151;27887;-75
2022/08/15 07:00:12;;;;;;;4.85;3.85;;;25.20;57.60;;;;;;929473;151;27358;-75
2022/08/15 07:02:50;;;;;;;3.25;2.85;;;25.20;57.50;;;;;;930261;151;27376;-75
2022/08/15 07:05:25;;;;;;;2.95;2.67;;;25.30;57.60;;;;;;930828;151;27467;-74
2022/08/15 07:08:04;;;;;;;3.33;2.90;;;25.30;57.30;;;;;;930451;151;28388;-74
2022/08/15 07:10:37;;;;;;;5.00;2.80;;;25.30;57.30;;;;;;906940;153;27945;-74
2022/08/15 07:13:11;;;;;;;3.37;2.60;;;25.40;57.30;;;;;;925752;152;27481;-74
2022/08/15 07:15:37;;;;;;;3.85;2.50;;;25.40;57.30;;;;;;933725;150;27340;-75
2022/08/15 07:18:02;;;;;;;2.35;2.12;;;25.40;57.30;;;;;;919802;151;27513;-74
2022/08/15 07:20:28;;;;;;;4.17;2.35;;;25.40;57.40;;;;;;925184;154;27348;-74
2022/08/15 07:22:55;;;;;;;3.60;2.47;;;25.40;57.30;;;;;;934702;151;27354;-75
2022/08/15 07:25:22;;;;;;;4.58;2.40;;;25.40;57.30;;;;;;944863;148;27262;-75
2022/08/15 07:27:54;;;;;;;3.35;2.62;;;25.40;57.30;;;;;;933279;151;28186;-74
2022/08/15 07:30:20;;;;;;;4.15;3.08;;;25.40;57.30;;;;;;928800;153;27460;-75
2022/08/15 07:32:50;;;;;;;2.85;2.30;;;25.40;57.30;;;;;;927935;152;27346;-75
2022/08/15 07:35:16;;;;;;;4.42;2.67;;;25.40;57.30;;;;;;930603;149;27520;-75
2022/08/15 07:37:53;;;;;;;2.65;2.45;;;25.40;57.30;;;;;;938533;151;27338;-75
2022/08/15 07:40:24;;;;;;;5.60;3.60;;;25.40;57.30;;;;;;928869;154;27517;-74
2022/08/15 07:42:51;;;;;;;4.35;3.22;;;25.50;57.30;;;;;;928888;153;27334;-75
2022/08/15 07:45:33;;;;;;;4.92;3.15;;;25.50;57.30;;;;;;927641;153;27372;-75
2022/08/15 07:47:59;;;;;;;3.80;2.85;;;25.50;57.30;;;;;;926597;152;27361;-75
2022/08/15 07:50:38;;;;;;;3.95;2.92;;;25.50;57.30;;;;;;927495;153;27433;-75
2022/08/15 07:53:19;;;;;;;6.87;3.27;;;25.50;57.40;;;;;;927390;153;27347;-75
2022/08/15 07:56:07;;;;;;;3.50;2.72;;;25.60;57.40;;;;;;927136;154;27470;-75
2022/08/15 07:58:33;;;;;;;4.95;3.00;;;25.60;57.30;;;;;;926852;154;27336;-75
2022/08/15 08:01:09;;;;;;;3.90;2.52;;;25.60;57.30;;;;;;934256;151;27322;-75
2022/08/15 08:03:36;;;;;;;3.83;2.95;;;25.70;57.50;;;;;;944620;148;27345;-75
2022/08/15 08:06:14;;;;;;;6.45;2.77;;;25.70;57.50;;;;;;938135;151;27321;-74
2022/08/15 08:08:43;;;;;;;4.40;2.83;;;25.80;57.50;;;;;;936654;152;27460;-75
2022/08/15 08:11:13;;;;;;;4.10;2.80;;;25.80;57.50;;;;;;935422;152;27310;-75
2022/08/15 08:13:51;;;;;;;4.87;3.12;;;25.90;57.50;;;;;;927866;153;27946;-75
2022/08/15 08:16:30;;;;;;;3.70;2.77;;;26.00;57.50;;;;;;937335;152;27740;-75
2022/08/15 08:19:08;;;;;;;4.58;2.70;;;26.00;57.50;;;;;;935610;150;27446;-74
2022/08/15 08:21:44;;;;;;;2.70;2.50;;;26.10;57.60;;;;;;936296;152;27336;-75
2022/08/15 08:24:14;;;;;;;3.40;2.58;;;26.10;57.50;;;;;;919865;152;27348;-75
2022/08/15 08:26:40;;;;;;;4.03;2.58;;;26.20;57.30;;;;;;934192;152;27743;-75
2022/08/15 08:29:13;;;;;;;4.33;2.65;;;26.30;57.30;;;;;;928433;151;27453;-75
2022/08/15 08:31:42;;;;;;;2.47;2.20;;;26.30;57.30;;;;;;928752;154;27350;-75
2022/08/15 08:34:36;;;;;;;2.15;2.05;;;26.40;57.30;;;;;;917100;154;27334;-75
2022/08/15 08:37:11;;;;;;;4.42;2.95;;;26.40;57.10;;;;;;891937;159;27352;-75
2022/08/15 08:39:40;;;;;;;3.47;2.52;;;26.50;57.20;;;;;;920588;153;27353;-75
2022/08/15 08:42:09;;;;;;;4.15;2.52;;;26.60;57.30;;;;;;926910;153;27378;-75
2022/08/15 08:45:10;;;;;;;2.95;2.20;;;26.70;57.40;;;;;;926467;153;27694;-75
2022/08/15 08:48:01;;;;;;;4.85;3.00;;;26.80;57.40;;;;;;927049;154;27352;-75
2022/08/15 08:50:39;;;;;;;3.30;2.45;;;26.90;57.50;;;;;;928828;152;27332;-74
2022/08/15 08:53:36;;;;;;;3.27;2.80;;;27.10;57.60;;;;;;926079;154;27337;-75
2022/08/15 08:56:03;;;;;;;4.70;3.08;;;27.40;57.70;;;;;;927491;154;27357;-75
2022/08/15 08:58:36;;;;;;;4.70;2.98;;;27.70;57.60;;;;;;926753;151;27401;-75
2022/08/15 09:01:02;;;;;;;3.47;2.92;;;28.00;57.60;;;;;;943044;148;27417;-75
2022/08/15 09:03:29;;;;;;;4.10;2.92;;;28.40;57.40;;;;;;938851;151;27323;-75
2022/08/15 09:05:54;;;;;;;5.35;2.70;;;28.80;57.30;;;;;;935305;152;27846;-75
2022/08/15 09:08:39;;;;;;;4.87;2.33;;;29.40;57.20;;;;;;934799;152;27365;-75
2022/08/15 09:11:27;;;;;;;3.27;2.20;;;29.90;56.90;;;;;;936362;153;27393;-76
2022/08/15 09:13:56;;;;;;;5.08;2.72;;;30.60;56.20;;;;;;936267;152;27848;-75
2022/08/15 09:16:35;;;;;;;2.87;2.40;;;31.40;55.70;;;;;;927324;152;27365;-76
2022/08/15 09:19:17;;;;;;;4.80;2.27;;;32.00;55.00;;;;;;928595;153;27451;-75
2022/08/15 09:21:43;;;;;;;2.60;2.30;;;32.80;53.90;;;;;;926584;153;27401;-76
2022/08/15 09:24:10;;;;;;;3.33;2.17;;;33.50;53.10;;;;;;927144;153;26289;-76
2022/08/15 09:26:40;;;;;;;3.98;2.40;;;34.20;52.30;;;;;;941813;149;27401;-76
2022/08/15 09:29:31;;;;;;;4.53;2.35;;;34.90;51.30;;;;;;923274;154;26550;-76
2022/08/15 09:32:25;;;;;;;3.47;2.40;;;35.40;49.70;;;;;;939998;151;27281;-76
2022/08/15 09:35:07;;;;;;;6.83;2.40;;;35.70;48.60;;;;;;940845;151;27321;-76
2022/08/15 09:37:42;;;;;;;6.60;2.67;;;35.90;47.40;;;;;;941952;149;27317;-76
2022/08/15 09:40:17;;;;;;;3.75;2.47;;;36.00;46.60;;;;;;930433;151;27418;-76
2022/08/15 09:42:55;;;;;;;2.85;2.65;;;36.00;46.60;;;;;;929937;153;26233;-77
2022/08/15 09:45:43;;;;;;;2.65;1.98;;;36.00;46.10;;;;;;888899;160;26494;-76
2022/08/15 09:48:22;;;;;;;2.35;2.15;;;36.00;45.70;;;;;;927844;153;27364;-76
2022/08/15 09:50:53;;;;;;;3.22;2.42;;;35.80;45.10;;;;;;925209;152;27364;-76
2022/08/15 09:53:29;;;;;;;3.02;2.10;;;35.60;44.90;;;;;;918769;156;27355;-76
2022/08/15 09:55:55;;;;;;;3.12;2.20;;;35.40;44.60;;;;;;941261;149;27361;-76
2022/08/15 09:58:28;;;;;;;2.33;2.12;;;35.10;44.80;;;;;;929586;152;27422;-75
2022/08/15 10:01:06;;;;;;;3.00;2.45;;;34.80;44.70;;;;;;923221;154;27355;-75
2022/08/15 10:03:45;;;;;;;2.75;2.20;;;34.50;44.90;;;;;;940397;152;27338;-75
2022/08/15 10:06:14;;;;;;;3.08;2.20;;;34.20;45.00;;;;;;927082;153;27307;-75
2022/08/15 10:08:53;;;;;;;4.03;2.47;;;33.90;45.20;;;;;;932002;149;27476;-75
2022/08/15 10:11:40;;;;;;;2.75;2.33;;;33.70;45.50;;;;;;926544;154;27382;-76
2022/08/15 10:14:06;;;;;;;3.83;2.17;;;33.40;45.80;;;;;;923516;155;27401;-76
2022/08/15 10:16:39;;;;;;;5.62;2.42;;;33.20;46.10;;;;;;921210;154;27404;-75
2022/08/15 10:19:08;;;;;;;2.45;2.25;;;33.00;46.10;;;;;;924175;155;27401;-76
2022/08/15 10:21:32;;;;;;;4.37;2.05;;;32.80;46.40;;;;;;926136;152;27410;-76
2022/08/15 10:23:59;;;;;;;2.33;2.08;;;32.70;46.60;;;;;;925976;154;27455;-76
2022/08/15 10:26:31;;;;;;;2.83;2.00;;;32.50;46.90;;;;;;926160;154;27315;-76
2022/08/15 10:29:17;;;;;;;2.30;1.87;;;32.40;47.00;;;;;;927071;154;27371;-76
2022/08/15 10:31:52;;;;;;;2.25;1.98;;;32.30;47.10;;;;;;928670;153;27476;-76
2022/08/15 10:34:18;;;;;;;2.10;2.00;;;32.20;47.20;;;;;;929193;153;27435;-76
2022/08/15 10:36:46;;;;;;;2.30;2.10;;;32.20;47.30;;;;;;928630;153;27346;-76
2022/08/15 10:39:23;;;;;;;2.37;2.05;;;32.10;47.30;;;;;;939535;151;27438;-76
2022/08/15 10:42:13;;;;;;;2.55;2.35;;;32.10;47.40;;;;;;928841;154;27394;-76
2022/08/15 10:44:42;;;;;;;2.85;2.02;;;32.20;47.50;;;;;;928796;153;27338;-76
2022/08/15 10:47:34;;;;;;;3.02;1.95;;;32.20;47.50;;;;;;930563;149;27338;-76
2022/08/15 10:50:07;;;;;;;2.60;1.70;;;32.30;47.50;;;;;;897650;157;27496;-76
2022/08/15 10:52:35;;;;;;;3.30;2.25;;;32.40;47.50;;;;;;895360;157;28162;-76
2022/08/15 10:55:29;;;;;;;3.92;2.20;;;32.50;46.70;;;;;;909333;153;27298;-76
2022/08/15 10:57:56;;;;;;;2.20;2.00;;;32.70;47.30;;;;;;927662;154;27706;-76
2022/08/15 11:00:29;;;;;;;2.27;2.02;;;32.80;47.20;;;;;;928491;153;27387;-76
2022/08/15 11:02:56;;;;;;;2.80;2.08;;;33.00;46.90;;;;;;944033;151;27429;-76
2022/08/15 11:05:22;;;;;;;3.60;2.10;;;33.10;46.60;;;;;;943446;148;27325;-76
2022/08/15 11:07:49;;;;;;;2.37;2.02;;;33.30;46.50;;;;;;928482;154;27299;-76
2022/08/15 11:10:15;;;;;;;4.05;2.22;;;33.40;46.10;;;;;;929037;153;27304;-76
2022/08/15 11:12:41;;;;;;;2.12;1.80;;;33.60;46.00;;;;;;935651;149;27348;-76
2022/08/15 11:15:24;;;;;;;5.37;2.10;;;33.60;45.80;;;;;;927966;151;27480;-76
2022/08/15 11:18:00;;;;;;;1.98;1.77;;;33.70;45.50;;;;;;928266;154;28385;-76
2022/08/15 11:20:27;;;;;;;4.17;1.80;;;33.80;45.90;;;;;;928955;153;27434;-76
2022/08/15 11:22:51;;;;;;;2.05;1.82;;;33.80;45.00;;;;;;941059;149;27473;-76
2022/08/15 11:25:20;;;;;;;2.75;1.70;;;33.90;44.60;;;;;;941159;149;27434;-75
2022/08/15 11:27:46;;;;;;;2.00;1.82;;;33.80;44.50;;;;;;939795;149;27440;-75
2022/08/15 11:30:13;;;;;;;2.17;1.85;;;33.70;44.30;;;;;;939803;149;27360;-75
2022/08/15 11:32:38;;;;;;;1.90;1.80;;;33.70;44.30;;;;;;940281;149;27320;-76
2022/08/15 11:35:08;;;;;;;1.70;1.60;;;33.60;44.10;;;;;;941274;149;27362;-76
2022/08/15 11:37:40;;;;;;;1.62;1.50;;;33.50;43.90;;;;;;932836;149;27731;-75
2022/08/15 11:40:06;;;;;;;2.85;1.80;;;33.40;43.80;;;;;;940427;149;27410;-75
2022/08/15 11:42:36;;;;;;;2.65;2.12;;;33.30;43.70;;;;;;938697;149;27343;-76
2022/08/15 11:45:06;;;;;;;1.98;1.80;;;33.10;43.70;;;;;;941339;149;27363;-76
2022/08/15 11:47:32;;;;;;;3.42;1.70;;;32.90;43.60;;;;;;941630;149;27437;-76
2022/08/15 11:50:02;;;;;;;1.70;1.60;;;32.80;43.70;;;;;;941587;149;27435;-76
2022/08/15 11:52:31;;;;;;;6.40;1.87;;;32.60;44.10;;;;;;940771;149;27378;-76
2022/08/15 11:55:10;;;;;;;1.60;1.50;;;32.50;44.80;;;;;;939543;149;27440;-76
2022/08/15 11:57:39;;;;;;;1.42;1.35;;;32.40;44.40;;;;;;940702;149;27322;-76
2022/08/15 12:00:07;;;;;;;1.90;1.40;;;32.40;44.60;;;;;;941669;149;27338;-76
2022/08/15 12:02:33;;;;;;;1.70;1.60;;;32.40;44.70;;;;;;940712;149;27396;-76
2022/08/15 12:04:59;;;;;;;1.65;1.50;;;32.50;44.90;;;;;;941787;149;27447;-76
2022/08/15 12:07:29;;;;;;;1.75;1.65;;;32.50;45.00;;;;;;938575;149;27358;-76
2022/08/15 12:09:58;;;;;;;1.75;1.65;;;32.70;44.80;;;;;;941517;149;27321;-76
2022/08/15 12:12:40;;;;;;;1.60;1.50;;;32.80;44.70;;;;;;940879;149;27470;-76
2022/08/15 12:15:18;;;;;;;2.62;1.98;;;33.00;44.60;;;;;;941284;149;27454;-77
2022/08/15 12:18:03;;;;;;;2.20;2.00;;;33.10;44.30;;;;;;940619;149;27459;-77
2022/08/15 12:20:45;;;;;;;1.80;1.70;;;33.30;44.10;;;;;;941031;149;27442;-76
2022/08/15 12:23:27;;;;;;;1.70;1.60;;;33.40;43.80;;;;;;940088;149;27402;-76
2022/08/15 12:25:56;;;;;;;1.70;1.60;;;33.50;43.60;;;;;;941650;149;27321;-76
2022/08/15 12:28:23;;;;;;;2.00;1.75;;;33.50;43.50;;;;;;940561;149;27481;-76
2022/08/15 12:30:50;;;;;;;2.72;1.70;;;33.60;43.30;;;;;;941278;149;27353;-76
2022/08/15 12:33:16;;;;;;;2.77;1.90;;;33.50;43.10;;;;;;939928;149;27470;-76
2022/08/15 12:35:42;;;;;;;3.10;1.92;;;33.50;43.00;;;;;;940448;149;27330;-76
2022/08/15 12:38:09;;;;;;;2.50;1.82;;;33.50;42.90;;;;;;940998;149;27370;-76
2022/08/15 12:40:36;;;;;;;4.25;2.30;;;33.30;42.60;;;;;;941500;149;27425;-77
2022/08/15 12:43:02;;;;;;;3.02;1.95;;;33.20;42.70;;;;;;942351;149;27370;-75
2022/08/15 12:45:29;;;;;;;2.58;2.20;;;33.00;42.80;;;;;;942020;149;27486;-74
2022/08/15 12:47:55;;;;;;;4.58;2.20;;;32.70;42.80;;;;;;941050;149;27980;-75
2022/08/15 12:50:22;;;;;;;5.22;2.30;;;32.50;43.10;;;;;;938410;149;27295;-75
2022/08/15 12:52:48;;;;;;;3.42;2.20;;;32.20;43.40;;;;;;941930;149;27360;-75
2022/08/15 12:55:15;;;;;;;2.42;2.33;;;31.80;43.80;;;;;;941043;149;27357;-75
2022/08/15 12:57:42;;;;;;;2.35;2.05;;;31.60;44.20;;;;;;940639;149;27346;-75
2022/08/15 13:00:08;;;;;;;2.67;2.45;;;31.30;44.70;;;;;;940614;149;27797;-75